createdAt,value
2016-04-06T00:00:38.413Z,0
2016-04-06T00:01:38.385Z,0
2016-04-06T00:02:38.372Z,0
2016-04-06T00:03:38.343Z,0
2016-04-06T00:04:38.315Z,0
2016-04-06T00:05:38.286Z,0
2016-04-06T00:06:38.304Z,0
2016-04-06T00:07:38.260Z,0
2016-04-06T00:08:38.231Z,0
2016-04-06T00:09:38.187Z,0
2016-04-06T00:10:38.174Z,0
2016-04-06T00:11:38.145Z,0
2016-04-06T00:12:38.133Z,0
2016-04-06T00:13:38.119Z,0
2016-04-06T00:14:38.075Z,0
2016-04-06T00:15:38.047Z,0
2016-04-06T00:16:38.033Z,0
2016-04-06T00:17:38.005Z,0
2016-04-06T00:18:38.039Z,0
2016-04-06T00:19:37.964Z,0
2016-04-06T00:20:37.951Z,0
2016-04-06T00:21:37.907Z,0
2016-04-06T00:22:37.910Z,0
2016-04-06T00:23:37.881Z,0
2016-04-06T00:24:37.852Z,0
2016-04-06T00:25:37.824Z,0
2016-04-06T00:26:37.795Z,0
2016-04-06T00:27:37.798Z,0
2016-04-06T00:28:37.785Z,0
2016-04-06T00:29:37.726Z,0
2016-04-06T00:30:37.713Z,0
2016-04-06T00:31:37.685Z,0
2016-04-06T00:32:37.671Z,0
2016-04-06T00:33:37.627Z,0
2016-04-06T00:34:37.614Z,0
2016-04-06T00:35:37.601Z,0
2016-04-06T00:36:37.572Z,0
2016-04-06T00:37:37.543Z,0
2016-04-06T00:38:37.562Z,0
2016-04-06T00:39:37.518Z,0
2016-04-06T00:40:37.459Z,0
2016-04-06T00:41:37.445Z,0
2016-04-06T00:42:37.417Z,0
2016-04-06T00:43:37.403Z,0
2016-04-06T00:44:37.391Z,0
2016-04-06T00:45:37.362Z,0
2016-04-06T00:46:37.349Z,0
2016-04-06T00:47:37.337Z,0
2016-04-06T00:48:37.277Z,0
2016-04-06T00:49:37.280Z,0
2016-04-06T00:50:37.219Z,0
2016-04-06T00:51:37.222Z,0
2016-04-06T00:52:37.194Z,0
2016-04-06T00:53:37.165Z,0
2016-04-06T00:54:37.152Z,0
2016-04-06T00:55:37.138Z,0
2016-04-06T00:56:37.095Z,0
2016-04-06T00:57:37.066Z,0
2016-04-06T00:58:37.054Z,0
2016-04-06T00:59:37.025Z,0
2016-04-06T01:00:36.996Z,0
2016-04-06T01:01:36.983Z,0
2016-04-06T01:02:36.971Z,0
2016-04-06T01:03:36.926Z,0
2016-04-06T01:04:36.929Z,0
2016-04-06T01:05:36.884Z,0
2016-04-06T01:06:36.856Z,0
2016-04-06T01:07:36.859Z,0
2016-04-06T01:08:36.815Z,0
2016-04-06T01:09:36.787Z,0
2016-04-06T01:10:36.773Z,0
2016-04-06T01:11:36.745Z,0
2016-04-06T01:12:36.716Z,0
2016-04-06T01:13:36.687Z,0
2016-04-06T01:14:36.675Z,0
2016-04-06T01:15:36.490Z,0
2016-04-06T01:16:36.618Z,0
2016-04-06T01:17:36.605Z,0
2016-04-06T01:18:36.592Z,0
2016-04-06T01:19:36.563Z,0
2016-04-06T01:20:36.534Z,0
2016-04-06T01:21:36.506Z,0
2016-04-06T01:22:36.493Z,0
2016-04-06T01:23:36.449Z,0
2016-04-06T01:24:36.435Z,0
2016-04-06T01:25:36.423Z,0
2016-04-06T01:26:36.379Z,0
2016-04-06T01:27:36.366Z,0
2016-04-06T01:28:36.353Z,0
2016-04-06T01:29:36.324Z,0
2016-04-06T01:30:36.296Z,0
2016-04-06T01:31:36.267Z,0
2016-04-06T01:32:36.238Z,0
2016-04-06T01:33:36.225Z,0
2016-04-06T01:34:36.196Z,0
2016-04-06T01:35:36.168Z,0
2016-04-06T01:36:36.140Z,0
2016-04-06T01:37:36.127Z,0
2016-04-06T01:38:36.099Z,0
2016-04-06T01:39:36.070Z,0
2016-04-06T01:40:36.057Z,0
2016-04-06T01:41:36.028Z,0
2016-04-06T01:42:36.000Z,0
2016-04-06T01:43:35.987Z,0
2016-04-06T01:44:35.974Z,0
2016-04-06T01:45:35.931Z,0
2016-04-06T01:46:35.901Z,0
2016-04-06T01:47:35.889Z,0
2016-04-06T01:48:35.875Z,0
2016-04-06T01:49:35.831Z,0
2016-04-06T01:50:35.818Z,0
2016-04-06T01:51:35.789Z,0
2016-04-06T01:52:35.761Z,0
2016-04-06T01:53:35.732Z,0
2016-04-06T01:54:35.720Z,0
2016-04-06T01:55:35.691Z,0
2016-04-06T01:56:35.678Z,0
2016-04-06T01:57:35.494Z,0
2016-04-06T01:58:35.621Z,0
2016-04-06T01:59:35.593Z,0
2016-04-06T02:00:35.610Z,0
2016-04-06T02:01:35.566Z,0
2016-04-06T02:02:35.537Z,0
2016-04-06T02:03:35.493Z,0
2016-04-06T02:04:35.481Z,0
2016-04-06T02:05:35.452Z,0
2016-04-06T02:06:35.424Z,0
2016-04-06T02:07:35.410Z,0
2016-04-06T02:08:35.374Z,0
2016-04-06T02:09:35.362Z,0
2016-04-06T02:10:35.318Z,0
2016-04-06T02:11:35.305Z,0
2016-04-06T02:12:35.276Z,0
2016-04-06T02:13:35.263Z,0
2016-04-06T02:14:35.235Z,0
2016-04-06T02:15:35.207Z,0
2016-04-06T02:16:35.179Z,0
2016-04-06T02:17:35.165Z,0
2016-04-06T02:18:35.184Z,0
2016-04-06T02:19:35.123Z,0
2016-04-06T02:20:35.079Z,0
2016-04-06T02:21:35.067Z,0
2016-04-06T02:22:35.038Z,0
2016-04-06T02:23:35.026Z,0
2016-04-06T02:24:34.996Z,0
2016-04-06T02:25:34.968Z,0
2016-04-06T02:26:34.939Z,0
2016-04-06T02:27:34.926Z,0
2016-04-06T02:28:34.897Z,0
2016-04-06T02:29:34.900Z,0
2016-04-06T02:30:34.841Z,0
2016-04-06T02:31:34.094Z,0
2016-04-06T02:32:34.800Z,0
2016-04-06T02:33:34.771Z,0
2016-04-06T02:34:34.742Z,0
2016-04-06T02:35:34.730Z,0
2016-04-06T02:36:34.716Z,0
2016-04-06T02:37:34.672Z,0
2016-04-06T02:38:34.644Z,0
2016-04-06T02:39:34.630Z,0
2016-04-06T02:40:34.618Z,0
2016-04-06T02:41:34.589Z,0
2016-04-06T02:42:34.560Z,0
2016-04-06T02:43:34.532Z,0
2016-04-06T02:44:34.504Z,0
2016-04-06T02:45:34.491Z,0
2016-04-06T02:46:34.462Z,0
2016-04-06T02:47:34.449Z,0
2016-04-06T02:48:34.420Z,0
2016-04-06T02:49:34.392Z,0
2016-04-06T02:50:34.363Z,0
2016-04-06T02:51:34.335Z,0
2016-04-06T02:52:34.322Z,0
2016-04-06T02:53:34.293Z,0
2016-04-06T02:54:34.265Z,0
2016-04-06T02:55:34.251Z,0
2016-04-06T02:56:34.223Z,0
2016-04-06T02:57:34.195Z,0
2016-04-06T02:58:34.181Z,0
2016-04-06T02:59:34.153Z,0
2016-04-06T03:00:34.125Z,0
2016-04-06T03:01:34.112Z,0
2016-04-06T03:02:34.099Z,0
2016-04-06T03:03:34.055Z,0
2016-04-06T03:04:34.026Z,0
2016-04-06T03:05:33.998Z,0
2016-04-06T03:06:33.984Z,0
2016-04-06T03:07:33.956Z,0
2016-04-06T03:08:33.927Z,0
2016-04-06T03:09:33.914Z,0
2016-04-06T03:10:33.885Z,0
2016-04-06T03:11:33.872Z,0
2016-04-06T03:12:33.860Z,0
2016-04-06T03:13:33.675Z,0
2016-04-06T03:14:33.788Z,0
2016-04-06T03:15:33.758Z,0
2016-04-06T03:16:33.746Z,0
2016-04-06T03:17:33.717Z,0
2016-04-06T03:18:33.704Z,0
2016-04-06T03:19:33.676Z,0
2016-04-06T03:20:33.647Z,0
2016-04-06T03:21:33.619Z,0
2016-04-06T03:22:33.652Z,0
2016-04-06T03:23:33.577Z,0
2016-04-06T03:24:33.548Z,0
2016-04-06T03:25:33.551Z,0
2016-04-06T03:26:33.491Z,0
2016-04-06T03:27:33.494Z,0
2016-04-06T03:28:33.450Z,0
2016-04-06T03:29:33.420Z,0
2016-04-06T03:30:33.409Z,0
2016-04-06T03:31:33.380Z,0
2016-04-06T03:32:33.351Z,0
2016-04-06T03:33:33.339Z,0
2016-04-06T03:34:33.357Z,0
2016-04-06T03:35:33.281Z,0
2016-04-06T03:36:33.269Z,0
2016-04-06T03:37:33.255Z,0
2016-04-06T03:38:33.211Z,0
2016-04-06T03:39:33.182Z,0
2016-04-06T03:40:33.169Z,0
2016-04-06T03:41:33.157Z,0
2016-04-06T03:42:33.128Z,0
2016-04-06T03:43:33.100Z,0
2016-04-06T03:44:33.071Z,0
2016-04-06T03:45:33.043Z,0
2016-04-06T03:46:33.013Z,0
2016-04-06T03:47:33.001Z,0
2016-04-06T03:48:32.988Z,0
2016-04-06T03:49:32.944Z,0
2016-04-06T03:50:32.915Z,0
2016-04-06T03:51:32.918Z,0
2016-04-06T03:52:32.874Z,0
2016-04-06T03:53:32.845Z,0
2016-04-06T03:54:32.832Z,0
2016-04-06T03:55:32.804Z,0
2016-04-06T03:56:32.775Z,0
2016-04-06T03:57:32.762Z,0
2016-04-06T03:58:32.733Z,0
2016-04-06T03:59:32.706Z,0
2016-04-06T04:00:32.676Z,0
2016-04-06T04:01:32.664Z,0
2016-04-06T04:02:32.635Z,0
2016-04-06T04:03:32.622Z,0
2016-04-06T04:04:32.594Z,0
2016-04-06T04:05:32.564Z,0
2016-04-06T04:06:32.536Z,0
2016-04-06T04:07:32.523Z,0
2016-04-06T04:08:32.495Z,0
2016-04-06T04:09:32.483Z,0
2016-04-06T04:10:32.438Z,0
2016-04-06T04:11:32.409Z,0
2016-04-06T04:12:32.396Z,0
2016-04-06T04:13:32.399Z,0
2016-04-06T04:14:32.339Z,0
2016-04-06T04:15:32.311Z,0
2016-04-06T04:16:32.297Z,0
2016-04-06T04:17:32.269Z,0
2016-04-06T04:18:32.257Z,0
2016-04-06T04:19:32.102Z,0
2016-04-06T04:20:32.199Z,0
2016-04-06T04:21:32.186Z,0
2016-04-06T04:22:32.142Z,0
2016-04-06T04:23:32.113Z,0
2016-04-06T04:24:32.101Z,0
2016-04-06T04:25:32.071Z,4
2016-04-06T04:26:32.059Z,0
2016-04-06T04:27:32.031Z,4
2016-04-06T04:28:32.017Z,4
2016-04-06T04:29:31.990Z,8
2016-04-06T04:30:31.960Z,4
2016-04-06T04:31:31.932Z,4
2016-04-06T04:32:31.903Z,8
2016-04-06T04:33:31.875Z,12
2016-04-06T04:34:31.861Z,12
2016-04-06T04:35:31.880Z,12
2016-04-06T04:36:31.820Z,12
2016-04-06T04:37:31.791Z,20
2016-04-06T04:38:31.763Z,20
2016-04-06T04:39:31.734Z,24
2016-04-06T04:40:31.722Z,28
2016-04-06T04:41:31.693Z,32
2016-04-06T04:42:31.664Z,40
2016-04-06T04:43:31.652Z,44
2016-04-06T04:44:31.622Z,52
2016-04-06T04:45:31.594Z,60
2016-04-06T04:46:31.597Z,68
2016-04-06T04:47:31.552Z,76
2016-04-06T04:48:31.525Z,80
2016-04-06T04:49:31.511Z,84
2016-04-06T04:50:31.467Z,104
2016-04-06T04:51:31.438Z,120
2016-04-06T04:52:31.426Z,152
2016-04-06T04:53:31.412Z,140
2016-04-06T04:54:31.400Z,132
2016-04-06T04:55:31.371Z,132
2016-04-06T04:56:31.327Z,152
2016-04-06T04:57:31.299Z,184
2016-04-06T04:58:31.285Z,192
2016-04-06T04:59:31.242Z,200
2016-04-06T05:00:31.245Z,220
2016-04-06T05:01:31.215Z,236
2016-04-06T05:02:31.187Z,272
2016-04-06T05:03:31.158Z,332
2016-04-06T05:04:31.145Z,396
2016-04-06T05:05:31.116Z,436
2016-04-06T05:06:31.089Z,472
2016-04-06T05:07:31.076Z,516
2016-04-06T05:08:31.375Z,572
2016-04-06T05:09:31.019Z,648
2016-04-06T05:10:30.990Z,684
2016-04-06T05:11:30.977Z,860
2016-04-06T05:12:30.948Z,916
2016-04-06T05:13:30.920Z,964
2016-04-06T05:14:30.891Z,912
2016-04-06T05:15:30.863Z,980
2016-04-06T05:16:30.849Z,1060
2016-04-06T05:17:30.821Z,1044
2016-04-06T05:18:30.793Z,1148
2016-04-06T05:19:30.780Z,1280
2016-04-06T05:20:30.751Z,1444
2016-04-06T05:21:30.738Z,1560
2016-04-06T05:22:30.694Z,1580
2016-04-06T05:23:30.696Z,1716
2016-04-06T05:24:30.668Z,1812
2016-04-06T05:25:30.640Z,1916
2016-04-06T05:26:30.610Z,1892
2016-04-06T05:27:30.582Z,1936
2016-04-06T05:28:30.565Z,1884
2016-04-06T05:29:30.535Z,1788
2016-04-06T05:30:30.507Z,1788
2016-04-06T05:31:30.479Z,1872
2016-04-06T05:32:30.466Z,2116
2016-04-06T05:33:30.437Z,1832
2016-04-06T05:34:30.409Z,1572
2016-04-06T05:35:30.396Z,1460
2016-04-06T05:36:30.368Z,1576
2016-04-06T05:37:30.339Z,1472
2016-04-06T05:38:30.325Z,1364
2016-04-06T05:39:30.298Z,1288
2016-04-06T05:40:30.269Z,1336
2016-04-06T05:41:30.240Z,1280
2016-04-06T05:42:30.071Z,1416
2016-04-06T05:43:30.198Z,1404
2016-04-06T05:44:30.170Z,1372
2016-04-06T05:45:30.158Z,1444
2016-04-06T05:46:30.144Z,1460
2016-04-06T05:47:30.100Z,1700
2016-04-06T05:48:30.086Z,1832
2016-04-06T05:49:30.058Z,1708
2016-04-06T05:50:30.030Z,1820
2016-04-06T05:51:30.016Z,2004
2016-04-06T05:52:29.988Z,2160
2016-04-06T05:53:29.960Z,2536
2016-04-06T05:54:29.932Z,2548
2016-04-06T05:55:29.918Z,2452
2016-04-06T05:56:29.890Z,2536
2016-04-06T05:57:29.876Z,2972
2016-04-06T05:58:29.974Z,3012
2016-04-06T05:59:29.821Z,3212
2016-04-06T06:00:29.806Z,3240
2016-04-06T06:01:29.779Z,3064
2016-04-06T06:02:29.749Z,3592
2016-04-06T06:03:29.732Z,3752
2016-04-06T06:04:29.983Z,3496
2016-04-06T06:05:29.781Z,3300
2016-04-06T06:06:29.814Z,3424
2016-04-06T06:07:29.816Z,3752
2016-04-06T06:08:29.840Z,3856
2016-04-06T06:09:29.828Z,3988
2016-04-06T06:10:29.831Z,4712
2016-04-06T06:11:29.818Z,5404
2016-04-06T06:12:29.822Z,5720
2016-04-06T06:13:29.792Z,6392
2016-04-06T06:14:29.768Z,6488
2016-04-06T06:15:29.762Z,5932
2016-04-06T06:16:29.754Z,4920
2016-04-06T06:17:29.731Z,4640
2016-04-06T06:18:29.708Z,5428
2016-04-06T06:19:29.696Z,6692
2016-04-06T06:20:29.670Z,7636
2016-04-06T06:21:29.643Z,8472
2016-04-06T06:22:29.617Z,8524
2016-04-06T06:23:29.607Z,8348
2016-04-06T06:24:29.595Z,8180
2016-04-06T06:25:29.552Z,8080
2016-04-06T06:26:29.524Z,7020
2016-04-06T06:27:29.511Z,7228
2016-04-06T06:28:29.359Z,7288
2016-04-06T06:29:29.487Z,6664
2016-04-06T06:30:29.459Z,6120
2016-04-06T06:31:29.415Z,4952
2016-04-06T06:32:29.402Z,5208
2016-04-06T06:33:29.374Z,4968
2016-04-06T06:34:29.392Z,5336
2016-04-06T06:35:29.332Z,6352
2016-04-06T06:36:29.319Z,6848
2016-04-06T06:37:29.291Z,8708
2016-04-06T06:38:29.278Z,10252
2016-04-06T06:39:29.390Z,10104
2016-04-06T06:40:29.455Z,10052
2016-04-06T06:41:29.193Z,9744
2016-04-06T06:42:29.179Z,9180
2016-04-06T06:43:29.167Z,8980
2016-04-06T06:44:29.154Z,8076
2016-04-06T06:45:29.110Z,8556
2016-04-06T06:46:29.096Z,8924
2016-04-06T06:47:29.052Z,10024
2016-04-06T06:48:29.039Z,10856
2016-04-06T06:49:29.026Z,10224
2016-04-06T06:50:29.014Z,10580
2016-04-06T06:51:28.984Z,10104
2016-04-06T06:52:28.956Z,9836
2016-04-06T06:53:28.928Z,8780
2016-04-06T06:54:28.899Z,8148
2016-04-06T06:55:28.870Z,7728
2016-04-06T06:56:28.858Z,7044
2016-04-06T06:57:28.830Z,6524
2016-04-06T06:58:28.816Z,6424
2016-04-06T06:59:28.802Z,7180
2016-04-06T07:00:28.774Z,7340
2016-04-06T07:01:28.747Z,7200
2016-04-06T07:02:28.718Z,7500
2016-04-06T07:03:28.705Z,8980
2016-04-06T07:04:28.691Z,11056
2016-04-06T07:05:28.741Z,13452
2016-04-06T07:06:28.682Z,13348
2016-04-06T07:07:28.606Z,13208
2016-04-06T07:08:28.593Z,13952
2016-04-06T07:09:28.565Z,12716
2016-04-06T07:10:28.568Z,12020
2016-04-06T07:11:28.523Z,13544
2016-04-06T07:12:28.510Z,14572
2016-04-06T07:13:28.481Z,15564
2016-04-06T07:14:28.468Z,17312
2016-04-06T07:15:28.283Z,14184
2016-04-06T07:16:28.426Z,12992
2016-04-06T07:17:28.398Z,10968
2016-04-06T07:18:28.370Z,12044
2016-04-06T07:19:28.356Z,15880
2016-04-06T07:20:28.329Z,19072
2016-04-06T07:21:28.300Z,17120
2016-04-06T07:22:28.287Z,16692
2016-04-06T07:23:28.259Z,15680
2016-04-06T07:24:28.262Z,15028
2016-04-06T07:25:28.233Z,15744
2016-04-06T07:26:28.203Z,14036
2016-04-06T07:27:28.191Z,13008
2016-04-06T07:28:28.163Z,14224
2016-04-06T07:29:28.133Z,14728
2016-04-06T07:30:28.121Z,17632
2016-04-06T07:31:28.108Z,15064
2016-04-06T07:32:28.079Z,17280
2016-04-06T07:33:28.052Z,16092
2016-04-06T07:34:28.038Z,14656
2016-04-06T07:35:28.010Z,12188
2016-04-06T07:36:27.996Z,14064
2016-04-06T07:37:27.999Z,14244
2016-04-06T07:38:27.971Z,11796
2016-04-06T07:39:27.927Z,11904
2016-04-06T07:40:27.898Z,11748
2016-04-06T07:41:27.885Z,15276
2016-04-06T07:42:27.872Z,13224
2016-04-06T07:43:27.843Z,15568
2016-04-06T07:44:27.815Z,12372
2016-04-06T07:45:28.052Z,12608
2016-04-06T07:46:27.821Z,15924
2016-04-06T07:47:27.760Z,18496
2016-04-06T07:48:27.732Z,20800
2016-04-06T07:49:27.720Z,19136
2016-04-06T07:50:27.768Z,17856
2016-04-06T07:51:27.678Z,18112
2016-04-06T07:52:27.664Z,19552
2016-04-06T07:53:27.651Z,19872
2016-04-06T07:54:27.608Z,16520
2016-04-06T07:55:27.594Z,16760
2016-04-06T07:56:27.566Z,18016
2016-04-06T07:57:27.553Z,18624
2016-04-06T07:58:27.525Z,18464
2016-04-06T07:59:27.496Z,18784
2016-04-06T08:00:27.499Z,17568
2016-04-06T08:01:27.469Z,18944
2016-04-06T08:02:27.442Z,19936
2016-04-06T08:03:27.444Z,18496
2016-04-06T08:04:27.415Z,17312
2016-04-06T08:05:27.590Z,17184
2016-04-06T08:06:27.374Z,16904
2016-04-06T08:07:27.361Z,18624
2016-04-06T08:08:27.333Z,21792
2016-04-06T08:09:27.460Z,20864
2016-04-06T08:10:27.291Z,19136
2016-04-06T08:11:27.263Z,21152
2016-04-06T08:12:27.249Z,19104
2016-04-06T08:13:27.221Z,18016
2016-04-06T08:14:27.599Z,15992
2016-04-06T08:15:27.195Z,17824
2016-04-06T08:16:27.167Z,20704
2016-04-06T08:17:27.153Z,23296
2016-04-06T08:18:27.140Z,23328
2016-04-06T08:19:27.128Z,20576
2016-04-06T08:20:27.317Z,21920
2016-04-06T08:21:27.133Z,21696
2016-04-06T08:22:27.042Z,24544
2016-04-06T08:23:27.045Z,23168
2016-04-06T08:24:27.017Z,21920
2016-04-06T08:25:27.034Z,24128
2016-04-06T08:26:26.975Z,23296
2016-04-06T08:27:26.946Z,18272
2016-04-06T08:28:26.934Z,19520
2016-04-06T08:29:26.920Z,22944
2016-04-06T08:30:26.892Z,26688
2016-04-06T08:31:26.878Z,24640
2016-04-06T08:32:26.866Z,20864
2016-04-06T08:33:26.869Z,19136
2016-04-06T08:34:26.825Z,23456
2016-04-06T08:35:26.797Z,21184
2016-04-06T08:36:26.783Z,21376
2016-04-06T08:37:26.754Z,17376
2016-04-06T08:38:26.741Z,17376
2016-04-06T08:39:26.775Z,20128
2016-04-06T08:40:26.716Z,19872
2016-04-06T08:41:26.685Z,22240
2016-04-06T08:42:26.655Z,23424
2016-04-06T08:43:26.643Z,22560
2016-04-06T08:44:26.646Z,24544
2016-04-06T08:45:26.696Z,21952
2016-04-06T08:46:26.588Z,20960
2016-04-06T08:47:26.560Z,20448
2016-04-06T08:48:26.563Z,20224
2016-04-06T08:49:26.534Z,17920
2016-04-06T08:50:26.505Z,19776
2016-04-06T08:51:26.493Z,22016
2016-04-06T08:52:26.479Z,23360
2016-04-06T08:53:26.451Z,21632
2016-04-06T08:54:26.438Z,21376
2016-04-06T08:55:26.425Z,21920
2016-04-06T08:56:26.397Z,20864
2016-04-06T08:57:26.384Z,19072
2016-04-06T08:58:26.370Z,21408
2016-04-06T08:59:26.342Z,22656
2016-04-06T09:00:26.328Z,22688
2016-04-06T09:01:26.317Z,26368
2016-04-06T09:02:26.288Z,25440
2016-04-06T09:03:26.275Z,30400
2016-04-06T09:04:26.246Z,27552
2016-04-06T09:05:26.233Z,28032
2016-04-06T09:06:26.220Z,22016
2016-04-06T09:07:26.208Z,24416
2016-04-06T09:08:26.194Z,23808
2016-04-06T09:09:26.166Z,20896
2016-04-06T09:10:26.152Z,22112
2016-04-06T09:11:26.140Z,24352
2016-04-06T09:12:26.111Z,27808
2016-04-06T09:13:26.098Z,24928
2016-04-06T09:14:26.071Z,24256
2016-04-06T09:15:26.057Z,20448
2016-04-06T09:16:26.043Z,18784
2016-04-06T09:17:26.031Z,24640
2016-04-06T09:18:26.002Z,25408
2016-04-06T09:19:25.974Z,21760
2016-04-06T09:20:25.961Z,17708
2016-04-06T09:21:26.418Z,22080
2016-04-06T09:22:25.920Z,21984
2016-04-06T09:23:25.906Z,27008
2016-04-06T09:24:25.910Z,23552
2016-04-06T09:25:25.881Z,20128
2016-04-06T09:26:25.868Z,21440
2016-04-06T09:27:26.136Z,21216
2016-04-06T09:28:25.826Z,25280
2016-04-06T09:29:25.798Z,24736
2016-04-06T09:30:25.769Z,25504
2016-04-06T09:31:25.772Z,27360
2016-04-06T09:32:25.759Z,23168
2016-04-06T09:33:25.731Z,19680
2016-04-06T09:34:25.702Z,26016
2016-04-06T09:35:25.689Z,26336
2016-04-06T09:36:25.676Z,23488
2016-04-06T09:37:25.663Z,22752
2016-04-06T09:38:25.635Z,24640
2016-04-06T09:39:25.622Z,26784
2016-04-06T09:40:25.671Z,26496
2016-04-06T09:41:25.611Z,26080
2016-04-06T09:42:25.604Z,25952
2016-04-06T09:43:25.559Z,25056
2016-04-06T09:44:25.530Z,20992
2016-04-06T09:45:25.605Z,18640
2016-04-06T09:46:25.404Z,21568
2016-04-06T09:47:25.485Z,20640
2016-04-06T09:48:25.488Z,17820
2016-04-06T09:49:25.458Z,19680
2016-04-06T09:50:25.431Z,20992
2016-04-06T09:51:25.418Z,21504
2016-04-06T09:52:25.389Z,24224
2016-04-06T09:53:25.376Z,22080
2016-04-06T09:54:25.363Z,18624
2016-04-06T09:55:25.366Z,18752
2016-04-06T09:56:25.306Z,11192
2016-04-06T09:57:25.324Z,11200
2016-04-06T09:58:25.280Z,10164
2016-04-06T09:59:25.267Z,8644
2016-04-06T10:00:25.254Z,12004
2016-04-06T10:01:25.240Z,22464
2016-04-06T10:02:25.276Z,17424
2016-04-06T10:03:25.200Z,14796
2016-04-06T10:04:25.187Z,16064
2016-04-06T10:05:25.159Z,12304
2016-04-06T10:06:25.161Z,10832
2016-04-06T10:07:25.132Z,9680
2016-04-06T10:08:25.104Z,9792
2016-04-06T10:09:25.075Z,9196
2016-04-06T10:10:25.109Z,10520
2016-04-06T10:11:25.050Z,10988
2016-04-06T10:12:25.036Z,11136
2016-04-06T10:13:25.008Z,11596
2016-04-06T10:14:24.995Z,14300
2016-04-06T10:15:24.966Z,18816
2016-04-06T10:16:24.953Z,23104
2016-04-06T10:17:24.925Z,27392
2016-04-06T10:18:24.912Z,30784
2016-04-06T10:19:24.899Z,29728
2016-04-06T10:20:24.886Z,28320
2016-04-06T10:21:24.858Z,25760
2016-04-06T10:22:24.860Z,24064
2016-04-06T10:23:24.816Z,22368
2016-04-06T10:24:24.803Z,20320
2016-04-06T10:25:24.790Z,22176
2016-04-06T10:26:24.762Z,27520
2016-04-06T10:27:24.749Z,27040
2016-04-06T10:28:24.721Z,26080
2016-04-06T10:29:24.707Z,21184
2016-04-06T10:30:24.693Z,14872
2016-04-06T10:31:24.666Z,12612
2016-04-06T10:32:24.668Z,12756
2016-04-06T10:33:24.656Z,13056
2016-04-06T10:34:24.626Z,14784
2016-04-06T10:35:24.615Z,15684
2016-04-06T10:36:24.601Z,15080
2016-04-06T10:37:24.572Z,13548
2016-04-06T10:38:24.559Z,15464
2016-04-06T10:39:24.531Z,15652
2016-04-06T10:40:24.503Z,14728
2016-04-06T10:41:24.505Z,14484
2016-04-06T10:42:24.476Z,14780
2016-04-06T10:43:24.464Z,16024
2016-04-06T10:44:24.450Z,14920
2016-04-06T10:45:24.422Z,15456
2016-04-06T10:46:24.409Z,15788
2016-04-06T10:47:24.397Z,15424
2016-04-06T10:48:24.368Z,14916
2016-04-06T10:49:24.386Z,14676
2016-04-06T10:50:24.341Z,14440
2016-04-06T10:51:24.313Z,14052
2016-04-06T10:52:24.300Z,14292
2016-04-06T10:53:24.288Z,14688
2016-04-06T10:54:24.368Z,16756
2016-04-06T10:55:24.793Z,17100
2016-04-06T10:56:24.249Z,18752
2016-04-06T10:57:24.204Z,21088
2016-04-06T10:58:24.207Z,27360
2016-04-06T10:59:24.179Z,27488
2016-04-06T11:00:24.181Z,23552
2016-04-06T11:01:24.293Z,19136
2016-04-06T11:02:24.139Z,19328
2016-04-06T11:03:24.096Z,15644
2016-04-06T11:04:24.098Z,13836
2016-04-06T11:05:24.100Z,16040
2016-04-06T11:06:24.181Z,18624
2016-04-06T11:07:24.029Z,24320
2016-04-06T11:08:24.015Z,26272
2016-04-06T11:09:23.986Z,25824
2016-04-06T11:10:23.990Z,23488
2016-04-06T11:11:23.961Z,22240
2016-04-06T11:12:23.947Z,24512
2016-04-06T11:13:23.935Z,25024
2016-04-06T11:14:23.907Z,22112
2016-04-06T11:15:23.894Z,18976
2016-04-06T11:16:23.880Z,18144
2016-04-06T11:17:23.852Z,21728
2016-04-06T11:18:23.855Z,22368
2016-04-06T11:19:23.841Z,19136
2016-04-06T11:20:23.813Z,22528
2016-04-06T11:21:23.800Z,23744
2016-04-06T11:22:23.788Z,23168
2016-04-06T11:23:23.774Z,20800
2016-04-06T11:24:23.746Z,18176
2016-04-06T11:25:23.717Z,18272
2016-04-06T11:26:23.719Z,15292
2016-04-06T11:27:23.691Z,13516
2016-04-06T11:28:23.679Z,12932
2016-04-06T11:29:23.665Z,13700
2016-04-06T11:30:23.652Z,14896
2016-04-06T11:31:23.623Z,16844
2016-04-06T11:32:23.689Z,20416
2016-04-06T11:33:23.598Z,21920
2016-04-06T11:34:23.585Z,20480
2016-04-06T11:35:23.401Z,19456
2016-04-06T11:36:23.543Z,18560
2016-04-06T11:37:23.531Z,18112
2016-04-06T11:38:23.799Z,19744
2016-04-06T11:39:23.489Z,19680
2016-04-06T11:40:23.476Z,18304
2016-04-06T11:41:23.463Z,17344
2016-04-06T11:42:23.451Z,15928
2016-04-06T11:43:23.437Z,15852
2016-04-06T11:44:23.409Z,18816
2016-04-06T11:45:23.380Z,25504
2016-04-06T11:46:23.227Z,26816
2016-04-06T11:47:23.355Z,26624
2016-04-06T11:48:23.358Z,29152
2016-04-06T11:49:23.328Z,26688
2016-04-06T11:50:23.316Z,22720
2016-04-06T11:51:23.303Z,22304
2016-04-06T11:52:23.289Z,26912
2016-04-06T11:53:23.261Z,27456
2016-04-06T11:54:23.248Z,26944
2016-04-06T11:55:23.235Z,24256
2016-04-06T11:56:23.222Z,27008
2016-04-06T11:57:23.194Z,24256
2016-04-06T11:58:23.181Z,24352
2016-04-06T11:59:23.199Z,25888
2016-04-06T12:00:23.140Z,24896
2016-04-06T12:01:23.126Z,24864
2016-04-06T12:02:23.113Z,25824
2016-04-06T12:03:23.148Z,27968
2016-04-06T12:04:23.119Z,29824
2016-04-06T12:05:23.199Z,37856
2016-04-06T12:06:22.937Z,30912
2016-04-06T12:07:23.033Z,22304
2016-04-06T12:08:23.028Z,17724
2016-04-06T12:09:22.999Z,17812
2016-04-06T12:10:22.969Z,17328
2016-04-06T12:11:22.957Z,14880
2016-04-06T12:12:22.944Z,13008
2016-04-06T12:13:22.931Z,12320
2016-04-06T12:14:22.918Z,12160
2016-04-06T12:15:22.905Z,12496
2016-04-06T12:16:22.877Z,12316
2016-04-06T12:17:22.865Z,12404
2016-04-06T12:18:22.853Z,13332
2016-04-06T12:19:22.840Z,14340
2016-04-06T12:20:22.812Z,14780
2016-04-06T12:21:22.892Z,21728
2016-04-06T12:22:22.770Z,18664
2016-04-06T12:23:22.788Z,15888
2016-04-06T12:24:22.759Z,18400
2016-04-06T12:25:22.747Z,24384
2016-04-06T12:26:22.718Z,21792
2016-04-06T12:27:22.705Z,20352
2016-04-06T12:28:21.942Z,23008
2016-04-06T12:29:22.663Z,26528
2016-04-06T12:30:22.666Z,22432
2016-04-06T12:31:22.622Z,19200
2016-04-06T12:32:22.625Z,24448
2016-04-06T12:33:22.736Z,22656
2016-04-06T12:34:22.584Z,25952
2016-04-06T12:35:22.571Z,21728
2016-04-06T12:36:22.588Z,17276
2016-04-06T12:37:22.529Z,23808
2016-04-06T12:38:22.516Z,25632
2016-04-06T12:39:22.502Z,25312
2016-04-06T12:40:22.475Z,21280
2016-04-06T12:41:22.524Z,16980
2016-04-06T12:42:22.543Z,16744
2016-04-06T12:43:22.435Z,20224
2016-04-06T12:44:22.423Z,20896
2016-04-06T12:45:22.394Z,20704
2016-04-06T12:46:22.382Z,20000
2016-04-06T12:47:22.603Z,21344
2016-04-06T12:48:22.370Z,19008
2016-04-06T12:49:22.327Z,18264
2016-04-06T12:50:22.345Z,19072
2016-04-06T12:51:22.019Z,18592
2016-04-06T12:52:22.287Z,16648
2016-04-06T12:53:22.276Z,19680
2016-04-06T12:54:22.247Z,18116
2016-04-06T12:55:22.233Z,16156
2016-04-06T12:56:22.221Z,18136
2016-04-06T12:57:22.207Z,20864
2016-04-06T12:58:22.179Z,22944
2016-04-06T12:59:22.181Z,22528
2016-04-06T13:00:22.153Z,19360
2016-04-06T13:01:22.172Z,18376
2016-04-06T13:02:22.128Z,19008
2016-04-06T13:03:22.099Z,19712
2016-04-06T13:04:22.101Z,19552
2016-04-06T13:05:22.073Z,20704
2016-04-06T13:06:21.982Z,23520
2016-04-06T13:07:22.063Z,22528
2016-04-06T13:08:22.034Z,26016
2016-04-06T13:09:22.006Z,22240
2016-04-06T13:10:21.993Z,22592
2016-04-06T13:11:21.963Z,22304
2016-04-06T13:12:21.966Z,22848
2016-04-06T13:13:22.194Z,19328
2016-04-06T13:14:21.931Z,17700
2016-04-06T13:15:21.902Z,19136
2016-04-06T13:16:21.890Z,17036
2016-04-06T13:17:21.893Z,20320
2016-04-06T13:18:21.864Z,21632
2016-04-06T13:19:21.866Z,21952
2016-04-06T13:20:21.854Z,23072
2016-04-06T13:21:21.840Z,23200
2016-04-06T13:22:21.812Z,23968
2016-04-06T13:23:21.784Z,21344
2016-04-06T13:24:21.771Z,16256
2016-04-06T13:25:21.757Z,18720
2016-04-06T13:26:21.745Z,19328
2016-04-06T13:27:21.716Z,17484
2016-04-06T13:28:21.718Z,16652
2016-04-06T13:29:21.690Z,17648
2016-04-06T13:30:21.678Z,18028
2016-04-06T13:31:21.665Z,16432
2016-04-06T13:32:21.636Z,15360
2016-04-06T13:33:21.639Z,15340
2016-04-06T13:34:21.610Z,15628